createdAt,value
2019-05-09T00:02:21.144Z,10.82
2019-05-09T00:04:48.222Z,10.78
2019-05-09T00:07:15.287Z,10.66
2019-05-09T00:09:44.082Z,10.48
2019-05-09T00:12:11.460Z,10.34
2019-05-09T00:14:38.496Z,10.39
2019-05-09T00:17:05.736Z,10.41
2019-05-09T00:19:33.545Z,10.34
2019-05-09T00:22:03.089Z,10.23
2019-05-09T00:24:29.621Z,10.17
2019-05-09T00:26:56.744Z,10.19
2019-05-09T00:29:30.445Z,10.09
2019-05-09T00:32:10.005Z,10.10
2019-05-09T00:34:46.988Z,10.13
2019-05-09T00:37:14.088Z,10.08
2019-05-09T00:39:42.884Z,10.04
2019-05-09T00:42:10.171Z,10.02
2019-05-09T00:44:39.336Z,9.94
2019-05-09T00:47:19.139Z,10.04
2019-05-09T00:49:46.223Z,10.03
2019-05-09T00:52:14.148Z,10.03
2019-05-09T00:54:43.684Z,9.79
2019-05-09T00:57:13.754Z,9.71
2019-05-09T00:59:40.898Z,9.68
2019-05-09T01:02:07.952Z,9.68
2019-05-09T01:04:35.326Z,9.66
2019-05-09T01:07:04.541Z,9.53
2019-05-09T01:09:33.409Z,9.48
2019-05-09T01:12:00.564Z,9.46
2019-05-09T01:14:27.915Z,9.49
2019-05-09T01:16:54.987Z,9.61
2019-05-09T01:19:23.299Z,9.63
2019-05-09T01:21:54.207Z,9.63
2019-05-09T01:24:23.247Z,9.65
2019-05-09T01:26:50.617Z,9.65
2019-05-09T01:29:17.888Z,9.51
2019-05-09T01:31:44.939Z,9.45
2019-05-09T01:34:18.958Z,9.36
2019-05-09T01:37:04.447Z,9.26
2019-05-09T01:39:33.636Z,9.23
2019-05-09T01:42:03.097Z,9.22
2019-05-09T01:44:30.265Z,9.22
2019-05-09T01:46:57.308Z,9.31
2019-05-09T01:49:24.397Z,9.39
2019-05-09T01:51:53.553Z,9.49
2019-05-09T01:54:23.696Z,9.44
2019-05-09T01:56:51.080Z,9.45
2019-05-09T01:59:20.790Z,9.46
2019-05-09T02:01:47.988Z,9.44
2019-05-09T02:04:15.431Z,9.37
2019-05-09T02:06:44.437Z,9.27
2019-05-09T02:09:13.877Z,9.27
2019-05-09T02:11:43.289Z,9.21
2019-05-09T02:14:13.526Z,9.16
2019-05-09T02:17:00.296Z,9.05
2019-05-09T02:19:33.658Z,9.04
2019-05-09T02:22:00.723Z,8.98
2019-05-09T02:24:27.743Z,8.96
2019-05-09T02:26:54.797Z,9.10
2019-05-09T02:29:23.173Z,9.16
2019-05-09T02:31:50.563Z,9.10
2019-05-09T02:34:17.626Z,9.04
2019-05-09T02:36:49.394Z,9.04
2019-05-09T02:39:18.633Z,8.88
2019-05-09T02:41:59.593Z,8.78
2019-05-09T02:44:13.784Z,8.80
2019-05-09T02:46:58.856Z,8.84
2019-05-09T02:49:28.451Z,8.83
2019-05-09T02:51:54.699Z,8.93
2019-05-09T02:54:22.064Z,9.01
2019-05-09T02:56:49.520Z,9.10
2019-05-09T02:59:24.683Z,9.09
2019-05-09T03:02:01.847Z,9.20
2019-05-09T03:04:30.345Z,9.18
2019-05-09T03:06:59.633Z,9.26
2019-05-09T03:09:30.504Z,9.14
2019-05-09T03:11:58.871Z,9.22
2019-05-09T03:14:28.619Z,9.37
2019-05-09T03:16:58.344Z,9.51
2019-05-09T03:19:24.461Z,9.69
2019-05-09T03:21:58.438Z,9.80
2019-05-09T03:24:28.571Z,9.92
2019-05-09T03:26:59.745Z,10.01
2019-05-09T03:29:40.295Z,10.17
2019-05-09T03:32:09.152Z,10.09
2019-05-09T03:34:37.596Z,10.14
2019-05-09T03:37:04.630Z,10.07
2019-05-09T03:39:31.709Z,10.03
2019-05-09T03:42:00.045Z,9.92
2019-05-09T03:44:28.292Z,9.99
2019-05-09T03:47:02.478Z,10.09
2019-05-09T03:49:29.504Z,10.12
2019-05-09T03:51:58.451Z,10.02
2019-05-09T03:54:28.269Z,10.08
2019-05-09T03:57:04.119Z,10.00
2019-05-09T03:59:31.184Z,9.88
2019-05-09T04:01:59.156Z,10.02
2019-05-09T04:04:28.108Z,10.20
2019-05-09T04:06:55.315Z,10.40
2019-05-09T04:09:22.421Z,10.22
2019-05-09T04:11:49.613Z,10.03
2019-05-09T04:14:21.566Z,9.89
2019-05-09T04:16:51.931Z,9.94
2019-05-09T04:19:19.212Z,9.89
2019-05-09T04:21:48.537Z,9.83
2019-05-09T04:24:17.767Z,9.84
2019-05-09T04:26:50.655Z,9.80
2019-05-09T04:31:57.664Z,10.08
2019-05-09T04:34:24.742Z,10.21
2019-05-09T04:36:51.783Z,10.42
2019-05-09T04:39:23.356Z,10.52
2019-05-09T04:41:48.678Z,10.56
2019-05-09T04:44:28.377Z,10.51
2019-05-09T04:47:01.698Z,10.56
2019-05-09T04:49:24.860Z,10.71
2019-05-09T04:51:51.973Z,10.37
2019-05-09T04:54:19.316Z,10.46
2019-05-09T04:57:27.886Z,10.36
2019-05-09T04:59:57.519Z,10.30
2019-05-09T05:02:39.328Z,10.42
2019-05-09T05:05:07.781Z,10.28
2019-05-09T05:07:37.472Z,10.25
2019-05-09T05:10:04.618Z,10.25
2019-05-09T05:12:31.648Z,10.35
2019-05-09T05:14:58.723Z,10.40
2019-05-09T05:17:28.350Z,10.47
2019-05-09T05:19:55.115Z,10.91
2019-05-09T05:22:38.717Z,11.50
2019-05-09T05:25:09.307Z,11.92
2019-05-09T05:27:38.234Z,12.16
2019-05-09T05:30:07.539Z,12.68
2019-05-09T05:32:54.468Z,12.20
2019-05-09T05:35:43.907Z,12.24
2019-05-09T05:38:11.294Z,12.03
2019-05-09T05:40:45.323Z,11.79
2019-05-09T05:43:08.743Z,12.10
2019-05-09T05:45:48.529Z,12.29
2019-05-09T05:48:19.771Z,12.44
2019-05-09T05:50:48.777Z,13.05
2019-05-09T05:53:18.090Z,13.09
2019-05-09T05:55:45.160Z,13.65
2019-05-09T05:58:12.256Z,14.25
2019-05-09T06:00:39.379Z,14.35
2019-05-09T06:03:08.764Z,14.58
2019-05-09T06:05:35.555Z,15.05
2019-05-09T06:08:02.620Z,14.71
2019-05-09T06:10:29.635Z,14.87
2019-05-09T06:12:57.506Z,14.67
2019-05-09T06:15:24.927Z,14.86
2019-05-09T06:17:51.985Z,14.69
2019-05-09T06:20:19.066Z,14.33
2019-05-09T06:22:47.816Z,14.78
2019-05-09T06:25:20.193Z,13.97
2019-05-09T06:27:48.061Z,13.24
2019-05-09T06:30:28.034Z,13.21
2019-05-09T06:32:54.952Z,13.01
2019-05-09T06:35:23.091Z,12.45
2019-05-09T06:37:50.476Z,12.05
2019-05-09T06:40:21.544Z,12.19
2019-05-09T06:42:49.027Z,12.49
2019-05-09T06:45:42.543Z,12.53
2019-05-09T06:48:10.170Z,12.52
2019-05-09T06:50:37.883Z,12.85
2019-05-09T06:53:07.808Z,13.19
2019-05-09T06:55:34.397Z,13.36
2019-05-09T06:58:21.108Z,13.57
2019-05-09T07:00:53.488Z,13.73
2019-05-09T07:03:23.814Z,13.39
2019-05-09T07:05:58.939Z,13.10
2019-05-09T07:08:34.692Z,12.74
2019-05-09T07:11:01.735Z,12.40
2019-05-09T07:13:31.789Z,12.47
2019-05-09T07:16:00.720Z,12.60
2019-05-09T07:18:27.807Z,12.58
2019-05-09T07:20:54.813Z,12.38
2019-05-09T07:23:21.859Z,12.05
2019-05-09T07:26:07.863Z,11.50
2019-05-09T07:28:37.515Z,11.59
2019-05-09T07:31:11.745Z,11.38
2019-05-09T07:34:08.554Z,11.28
2019-05-09T07:36:38.419Z,11.29
2019-05-09T07:39:08.850Z,11.46
2019-05-09T07:41:38.216Z,11.64
2019-05-09T07:44:04.803Z,12.25
2019-05-09T07:46:58.531Z,12.70
2019-05-09T07:49:28.854Z,13.11
2019-05-09T07:51:59.051Z,13.09
2019-05-09T07:54:29.341Z,13.66
2019-05-09T07:56:58.036Z,14.21
2019-05-09T07:59:27.377Z,14.57
2019-05-09T08:01:54.319Z,14.94
2019-05-09T08:04:21.398Z,14.56
2019-05-09T08:06:49.659Z,13.98
2019-05-09T08:09:18.648Z,13.40
2019-05-09T08:11:48.155Z,12.86
2019-05-09T08:14:17.428Z,12.60
2019-05-09T08:16:44.074Z,12.66
2019-05-09T08:19:11.368Z,13.07
2019-05-09T08:21:38.571Z,12.91
2019-05-09T08:24:07.904Z,13.06
2019-05-09T08:26:34.873Z,13.38
2019-05-09T08:29:02.355Z,13.90
2019-05-09T08:31:29.357Z,14.05
2019-05-09T08:33:59.290Z,13.92
2019-05-09T08:36:28.171Z,13.34
2019-05-09T08:38:58.594Z,12.95
2019-05-09T08:41:29.096Z,12.70
2019-05-09T08:43:57.559Z,12.22
2019-05-09T08:46:24.901Z,12.27
2019-05-09T08:48:52.287Z,12.03
2019-05-09T08:51:51.882Z,12.04
2019-05-09T08:54:29.443Z,12.06
2019-05-09T08:56:58.247Z,12.36
2019-05-09T08:59:27.599Z,12.65
2019-05-09T09:02:12.210Z,12.68
2019-05-09T09:04:25.067Z,12.57
2019-05-09T09:06:52.123Z,12.36
2019-05-09T09:09:19.287Z,12.73
2019-05-09T09:11:47.838Z,13.23
2019-05-09T09:14:15.150Z,13.38
2019-05-09T09:16:47.947Z,13.48
2019-05-09T09:19:18.754Z,13.44
2019-05-09T09:21:49.135Z,13.55
2019-05-09T09:24:17.581Z,13.42
2019-05-09T09:26:48.646Z,13.40
2019-05-09T09:29:28.459Z,13.09
2019-05-09T09:31:57.611Z,13.04
2019-05-09T09:34:27.136Z,13.31
2019-05-09T09:36:55.833Z,13.59
2019-05-09T09:39:44.796Z,13.55
2019-05-09T09:42:19.988Z,13.78
2019-05-09T09:44:48.226Z,13.52
2019-05-09T09:47:29.953Z,13.77
2019-05-09T09:50:00.703Z,13.65
2019-05-09T09:52:29.336Z,13.49
2019-05-09T09:54:58.198Z,13.28
2019-05-09T09:57:25.591Z,12.94
2019-05-09T09:59:58.372Z,12.55
2019-05-09T10:02:29.417Z,12.20
2019-05-09T10:04:58.345Z,12.09
2019-05-09T10:07:27.827Z,12.05
2019-05-09T10:09:55.570Z,12.04
2019-05-09T10:12:25.600Z,11.92
2019-05-09T10:15:01.492Z,12.18
2019-05-09T10:17:52.908Z,12.67
2019-05-09T10:20:31.198Z,12.92
2019-05-09T10:23:10.116Z,13.09
2019-05-09T10:25:33.742Z,13.64
2019-05-09T10:28:08.869Z,13.88
2019-05-09T10:30:48.365Z,14.21
2019-05-09T10:33:25.095Z,14.64
2019-05-09T10:36:04.419Z,14.97
2019-05-09T10:38:31.742Z,15.00
2019-05-09T10:41:02.509Z,14.53
2019-05-09T10:44:19.556Z,14.62
2019-05-09T10:47:14.088Z,14.38
2019-05-09T10:49:52.049Z,13.54
2019-05-09T10:52:21.286Z,13.02
2019-05-09T10:54:52.768Z,13.09
2019-05-09T10:57:30.885Z,13.10
2019-05-09T10:59:57.945Z,13.00
2019-05-09T11:02:29.680Z,13.09
2019-05-09T11:04:59.426Z,12.97
2019-05-09T11:07:29.977Z,13.13
2019-05-09T11:09:59.790Z,13.69
2019-05-09T11:12:33.994Z,13.99
2019-05-09T11:18:08.179Z,14.24
2019-05-09T11:20:45.446Z,14.25
2019-05-09T11:23:20.867Z,13.99
2019-05-09T11:26:20.926Z,14.10
2019-05-09T11:29:18.592Z,14.24
2019-05-09T11:31:52.722Z,14.11
2019-05-09T11:34:27.307Z,14.00
2019-05-09T11:37:02.927Z,14.38
2019-05-09T11:39:39.738Z,14.17
2019-05-09T11:42:20.725Z,13.94
2019-05-09T11:44:48.167Z,14.20
2019-05-09T11:47:28.475Z,14.22
2019-05-09T11:49:44.261Z,14.34
2019-05-09T11:52:11.705Z,14.23
2019-05-09T11:54:39.103Z,14.41
2019-05-09T11:57:09.571Z,14.56
2019-05-09T11:59:38.007Z,14.33
2019-05-09T12:02:05.505Z,14.50
2019-05-09T12:04:32.594Z,14.18
2019-05-09T12:06:59.708Z,13.88
2019-05-09T12:09:28.887Z,13.85
2019-05-09T12:11:59.255Z,14.02
2019-05-09T12:14:28.175Z,13.95
2019-05-09T12:16:55.836Z,13.97
2019-05-09T12:19:22.951Z,14.47
2019-05-09T12:21:50.307Z,14.85
2019-05-09T12:24:18.347Z,14.61
2019-05-09T12:26:48.209Z,14.73
2019-05-09T12:29:15.063Z,14.89
2019-05-09T12:31:43.294Z,14.72
2019-05-09T12:34:10.338Z,14.36
2019-05-09T12:36:39.743Z,14.45
2019-05-09T12:39:08.714Z,14.19
2019-05-09T12:41:38.455Z,13.74
2019-05-09T12:44:05.364Z,13.39
2019-05-09T12:46:34.394Z,13.50
2019-05-09T12:49:01.501Z,13.51
2019-05-09T12:51:29.704Z,13.51
2019-05-09T12:53:58.044Z,13.17
2019-05-09T12:56:25.343Z,13.18
2019-05-09T12:58:52.464Z,13.06
2019-05-09T13:01:19.722Z,13.26
2019-05-09T13:03:50.448Z,13.13
2019-05-09T13:06:19.937Z,13.07
2019-05-09T13:08:48.474Z,12.81
2019-05-09T13:11:15.621Z,12.90
2019-05-09T13:13:42.797Z,13.12
2019-05-09T13:16:20.535Z,13.31
2019-05-09T13:19:05.292Z,13.37
2019-05-09T13:21:33.227Z,13.19
2019-05-09T13:24:02.208Z,13.46
2019-05-09T13:26:30.694Z,13.41
2019-05-09T13:28:58.817Z,13.07
2019-05-09T13:31:29.358Z,13.09
2019-05-09T13:33:58.300Z,13.12
2019-05-09T13:36:28.534Z,13.39
2019-05-09T13:39:01.270Z,13.73
2019-05-09T13:41:24.176Z,13.37
2019-05-09T13:43:58.294Z,13.47
2019-05-09T13:46:20.861Z,13.31
2019-05-09T13:49:05.858Z,13.33
2019-05-09T13:51:18.349Z,13.61
2019-05-09T13:53:48.196Z,13.43
2019-05-09T13:56:15.028Z,13.30
2019-05-09T13:58:44.001Z,13.63
2019-05-09T14:01:11.105Z,13.76
2019-05-09T14:03:38.818Z,13.82
2019-05-09T14:06:09.094Z,13.96
2019-05-09T14:08:38.938Z,14.15
2019-05-09T14:11:09.676Z,14.98
2019-05-09T14:13:38.660Z,15.68
2019-05-09T14:16:19.047Z,15.64
2019-05-09T14:18:38.510Z,15.38
2019-05-09T14:21:07.698Z,14.99
2019-05-09T14:23:37.398Z,14.82
2019-05-09T14:26:03.968Z,15.15
2019-05-09T14:28:31.028Z,15.30
2019-05-09T14:30:59.510Z,15.50
2019-05-09T14:33:29.618Z,15.83
2019-05-09T14:35:56.754Z,15.93
2019-05-09T14:38:23.850Z,15.40
2019-05-09T14:40:50.966Z,15.26
2019-05-09T14:43:18.609Z,15.04
2019-05-09T14:45:48.344Z,14.67
2019-05-09T14:48:15.388Z,14.52
2019-05-09T14:50:42.488Z,14.36
2019-05-09T14:53:09.866Z,14.10
2019-05-09T14:55:39.147Z,14.12
2019-05-09T14:58:07.830Z,14.05
2019-05-09T15:00:35.039Z,14.01
2019-05-09T15:03:02.384Z,13.94
2019-05-09T15:05:29.468Z,13.88
2019-05-09T15:07:59.245Z,14.20
2019-05-09T15:10:25.615Z,15.23
2019-05-09T15:12:52.668Z,15.84
2019-05-09T15:15:21.012Z,14.20
2019-05-09T15:17:49.219Z,14.12
2019-05-09T15:20:17.971Z,15.80
2019-05-09T15:22:47.711Z,16.78
2019-05-09T15:25:19.106Z,17.39
2019-05-09T15:27:47.533Z,14.75
2019-05-09T15:30:14.483Z,14.22
2019-05-09T15:32:43.421Z,14.18
2019-05-09T15:35:10.601Z,14.51
2019-05-09T15:37:38.668Z,13.74
2019-05-09T15:40:08.752Z,14.50
2019-05-09T15:42:38.877Z,15.23
2019-05-09T15:45:07.707Z,17.11
2019-05-09T15:47:37.648Z,16.36
2019-05-09T15:50:16.653Z,18.10
2019-05-09T15:52:38.066Z,17.40
2019-05-09T15:55:09.544Z,16.28
2019-05-09T15:57:37.835Z,15.04
2019-05-09T16:00:08.231Z,14.58
2019-05-09T16:02:35.478Z,14.78
2019-05-09T16:05:02.919Z,14.53
2019-05-09T16:07:30.257Z,14.79
2019-05-09T16:09:57.997Z,14.45
2019-05-09T16:12:27.581Z,14.24
2019-05-09T16:15:09.331Z,14.39
2019-05-09T16:17:48.733Z,14.89
2019-05-09T16:20:22.943Z,14.60
2019-05-09T16:22:48.230Z,14.88
2019-05-09T16:25:15.130Z,14.78
2019-05-09T16:27:42.478Z,14.51
2019-05-09T16:30:09.945Z,14.61
2019-05-09T16:32:37.786Z,15.06
2019-05-09T16:35:07.743Z,14.58
2019-05-09T16:37:56.371Z,14.47
2019-05-09T16:40:05.299Z,14.31
2019-05-09T16:42:32.356Z,14.55
2019-05-09T16:44:59.554Z,15.07
2019-05-09T16:47:28.477Z,15.35
2019-05-09T16:49:57.902Z,15.68
2019-05-09T16:52:24.727Z,16.53
2019-05-09T16:55:02.664Z,17.33
2019-05-09T16:57:29.854Z,17.38
2019-05-09T16:59:56.896Z,18.07
2019-05-09T17:02:25.134Z,17.01
2019-05-09T17:04:52.410Z,15.71
2019-05-09T17:07:19.519Z,15.53
2019-05-09T17:09:48.479Z,14.90
2019-05-09T17:12:15.828Z,15.14
2019-05-09T17:14:44.059Z,14.85
2019-05-09T17:17:11.148Z,14.71
2019-05-09T17:19:38.326Z,14.76
2019-05-09T17:22:18.714Z,14.55
2019-05-09T17:24:48.449Z,14.59
2019-05-09T17:27:18.205Z,14.71
2019-05-09T17:29:47.739Z,14.65
2019-05-09T17:32:14.154Z,14.47
2019-05-09T17:34:42.526Z,14.49
2019-05-09T17:37:10.450Z,14.28
2019-05-09T17:39:44.284Z,14.19
2019-05-09T17:42:11.488Z,13.91
2019-05-09T17:44:40.354Z,14.01
2019-05-09T17:47:08.508Z,14.14
2019-05-09T17:49:40.228Z,14.15
2019-05-09T17:52:13.308Z,15.33
2019-05-09T17:54:40.694Z,15.30
2019-05-09T17:57:08.892Z,14.95
2019-05-09T17:59:36.087Z,14.61
2019-05-09T18:02:05.322Z,14.73
2019-05-09T18:04:32.714Z,14.46
2019-05-09T18:06:59.916Z,14.70
2019-05-09T18:09:28.572Z,14.89
2019-05-09T18:11:57.901Z,14.94
2019-05-09T18:14:27.999Z,14.59
2019-05-09T18:16:58.345Z,14.09
2019-05-09T18:19:30.991Z,13.76
2019-05-09T18:21:58.388Z,13.39
2019-05-09T18:24:25.557Z,13.40
2019-05-09T18:26:52.673Z,13.57
2019-05-09T18:29:22.185Z,13.61
2019-05-09T18:32:07.726Z,13.73
2019-05-09T18:34:37.872Z,13.74
2019-05-09T18:37:04.751Z,13.72
2019-05-09T18:39:33.082Z,13.84
2019-05-09T18:42:02.684Z,13.97
2019-05-09T18:44:30.100Z,14.10
2019-05-09T18:46:57.797Z,14.06
2019-05-09T18:49:25.357Z,14.08
2019-05-09T18:52:03.258Z,13.82
2019-05-09T18:54:21.749Z,13.88
2019-05-09T18:56:48.831Z,13.75
2019-05-09T18:59:15.915Z,13.79
2019-05-09T19:01:43.561Z,13.75
2019-05-09T19:04:10.624Z,13.74
2019-05-09T19:06:39.885Z,13.72
2019-05-09T19:09:07.365Z,13.57
2019-05-09T19:11:34.687Z,13.36
2019-05-09T19:14:02.972Z,13.06
2019-05-09T19:16:46.077Z,12.57
2019-05-09T19:19:19.594Z,12.27
2019-05-09T19:21:50.343Z,11.96
2019-05-09T19:24:17.521Z,11.91
2019-05-09T19:26:49.630Z,11.91
2019-05-09T19:29:19.668Z,11.90
2019-05-09T19:31:52.264Z,11.77
2019-05-09T19:34:21.561Z,11.73
2019-05-09T19:36:52.896Z,11.96
2019-05-09T19:39:24.936Z,12.09
2019-05-09T19:41:54.035Z,12.19
2019-05-09T19:44:22.769Z,12.33
2019-05-09T19:46:50.191Z,12.42
2019-05-09T19:49:19.181Z,12.43
2019-05-09T19:51:46.808Z,12.51
2019-05-09T19:54:13.983Z,12.50
2019-05-09T19:56:42.915Z,12.49
2019-05-09T19:59:10.194Z,12.50
2019-05-09T20:01:38.825Z,12.52
2019-05-09T20:04:05.924Z,12.61
2019-05-09T20:06:33.102Z,12.81
2019-05-09T20:09:02.481Z,12.96
2019-05-09T20:11:55.714Z,12.94
2019-05-09T20:14:26.370Z,12.82
2019-05-09T20:16:55.888Z,12.79
2019-05-09T20:19:23.479Z,12.71
2019-05-09T20:21:50.667Z,12.62
2019-05-09T20:24:17.930Z,12.53
2019-05-09T20:26:45.390Z,12.38
2019-05-09T20:29:16.638Z,12.24
2019-05-09T20:31:45.631Z,12.20
2019-05-09T20:34:12.685Z,12.13
2019-05-09T20:36:41.023Z,12.16
2019-05-09T20:39:08.144Z,12.17
2019-05-09T20:41:40.641Z,12.18
2019-05-09T20:44:07.765Z,12.18
2019-05-09T20:46:34.928Z,12.15
2019-05-09T20:49:02.142Z,12.10
2019-05-09T20:51:29.401Z,12.14
2019-05-09T20:53:56.577Z,12.14
2019-05-09T20:56:23.630Z,12.10
2019-05-09T20:58:53.075Z,12.11
2019-05-09T21:01:22.280Z,12.20
2019-05-09T21:04:03.036Z,12.31
2019-05-09T21:06:30.224Z,12.42
2019-05-09T21:08:57.350Z,12.23
2019-05-09T21:11:24.659Z,12.15
2019-05-09T21:13:51.804Z,12.13
2019-05-09T21:16:19.138Z,12.11
2019-05-09T21:18:47.746Z,12.04
2019-05-09T21:21:14.873Z,12.11
2019-05-09T21:23:42.248Z,11.99
2019-05-09T21:26:09.382Z,11.89
2019-05-09T21:28:36.453Z,11.74
2019-05-09T21:31:03.595Z,11.59
2019-05-09T21:33:30.675Z,11.52
2019-05-09T21:35:57.852Z,11.43
2019-05-09T21:38:26.201Z,11.32
2019-05-09T21:40:53.398Z,11.30
2019-05-09T21:43:20.759Z,11.26
2019-05-09T21:45:48.041Z,11.14
2019-05-09T21:48:15.114Z,11.07
2019-05-09T21:50:42.174Z,11.10
2019-05-09T21:53:09.327Z,11.15
2019-05-09T21:55:38.415Z,11.25
2019-05-09T21:58:05.540Z,11.20
2019-05-09T22:00:36.439Z,11.17
2019-05-09T22:03:06.172Z,11.13
2019-05-09T22:05:33.337Z,11.25
2019-05-09T22:08:00.519Z,11.49
2019-05-09T22:10:27.589Z,11.76
2019-05-09T22:12:55.094Z,12.05
2019-05-09T22:15:22.310Z,12.19
2019-05-09T22:17:49.518Z,12.31
2019-05-09T22:20:16.683Z,12.35
2019-05-09T22:22:44.135Z,12.35
2019-05-09T22:25:11.788Z,12.37
2019-05-09T22:27:39.412Z,12.35
2019-05-09T22:30:08.801Z,12.40
2019-05-09T22:32:38.766Z,12.52
2019-05-09T22:35:06.315Z,12.63
2019-05-09T22:37:33.706Z,12.66
2019-05-09T22:40:00.769Z,12.66
2019-05-09T22:42:27.977Z,12.65
2019-05-09T22:44:55.070Z,12.78
2019-05-09T22:47:22.334Z,12.76
2019-05-09T22:49:52.649Z,12.71
2019-05-09T22:52:20.216Z,12.66
2019-05-09T22:54:48.630Z,12.57
2019-05-09T22:57:17.546Z,12.41
2019-05-09T22:59:44.633Z,12.32
2019-05-09T23:02:11.705Z,12.25
2019-05-09T23:04:38.815Z,12.25
2019-05-09T23:07:07.330Z,12.27
2019-05-09T23:09:35.563Z,12.37
2019-05-09T23:12:04.423Z,12.36
2019-05-09T23:14:31.687Z,12.50
2019-05-09T23:16:58.892Z,12.60
2019-05-09T23:19:25.987Z,12.60
2019-05-09T23:21:53.941Z,12.69
2019-05-09T23:24:28.594Z,12.66
2019-05-09T23:26:51.282Z,12.66
2019-05-09T23:29:18.390Z,12.59
2019-05-09T23:31:54.984Z,12.65
2019-05-09T23:34:22.124Z,12.69
2019-05-09T23:36:49.163Z,12.68
2019-05-09T23:39:21.654Z,12.50
2019-05-09T23:41:48.876Z,12.38
2019-05-09T23:44:15.943Z,12.37
2019-05-09T23:46:43.098Z,12.41
2019-05-09T23:49:11.240Z,12.30
2019-05-09T23:51:46.777Z,12.23
2019-05-09T23:54:45.236Z,12.24
2019-05-09T23:57:22.039Z,12.27
